SBRF

Guararapes - Gilberto Freyre International Airport

Recife, Brazil
TAF SBRF 202130Z 2100/2124 12011KT 9000 BKN020 TN24/2109Z TX28/2114Z PROB40 TEMPO 2101/2107 7000 SHRA BKN015 RMK PCN
Issued Valid From Valid To
Sep-20 @ 21:30 UTC
(3 hours ago)
Sep-21 @ 00:00 UTC
(21 minutes ago)
Sep-22 @ 00:00 UTC
(in 24 hours)
to
to
TAF SBRF 202130Z 2100/2124 12011KT 9000 BKN020 TN24/2109Z TX28/2114Z PROB40 TEMPO 2101/2107 7000 SHRA BKN015 RMK PCN
Issued Sep-20 @ 21:30 UTC
(3 hours ago)
Valid From Sep-21 @ 00:00 UTC
(21 minutes ago)
Valid To Sep-22 @ 00:00 UTC
(in 24 hours)
-
-